Route Details

Aircraft Information
Group: Large Widebodies
Types: B744, MD11
Route Data
Distance: 2281nm
Duration: 6h 00m
Origin METAR: SPJC 181700Z 24006KT 9999 OVC014 16/12 Q1015 NOSIG RMK PP000
Dest. METAR: KMIA 181653Z 26004KT 10SM SCT042 SCT250 34/21 A2997 RMK AO2 SLP148 T03440206 $
Freight Data
(for Aug 18, 2022)
Load Factor:
25%
Manifested Cargo: 50,855lbs
Financial History
Total Freight: 1,277,814lbs
Average Load: 0lbs/flt
Fuel Used: 823,158lbs
Avg. Fuel Used: 0lbs/flt
Fuel Expense: $561,108
Avg. Fuel Expense: $0
Avg. Fuel Cost: $0/lbs
Total Gross Income: $3,812,590
Pilot Pay: $2,349
Total Expenses: $478,087
Total Revenue: $2,760,158
Average Revenue: $0

Capitol Logistics 728




SPJC
Jorge Chávez International Airport
Lima, PE
KMIA
Miami International Airport
Miami, US